Terminal Aerodrome Forecast
Issued by NWS

Home | Current Version | Previous Version | Text Only | Print | Product List | Glossary On
Versions: 1 2 3 4 5 6 7 8 9 10 11 12 13 14
000
FTUS46 KSGX 231437 AAA
TAFONT
TAF AMD
KONT 231437Z 2315/2418 25005KT 4SM BR BKN009
     FM231600 25007KT 6SM HZ FEW009
     FM232200 25012G20KT P6SM FEW100
     FM240400 25007KT P6SM SKC
     FM240900 VRB04KT P6SM BKN012
     FM241600 VRB05KT P6SM SCT015=

USA.gov is the U.S. government's official web portal to all federal, state and local government web resources and services.